ADDS METAR Data INFO
IDs: Format: Raw Decoded Include TAF

Data at: 1509 UTC 29 May 2017

METAR for:KDRT (Del Rio Intl, TX, US)
Text:KDRT 291453Z AUTO 01004KT 10SM CLR 26/19 A3005 RMK AO2 SLP160 T02560194 51020
Temperature: 25.6°C ( 78°F)
Dewpoint: 19.4°C ( 67°F) [RH = 69%]
Pressure (altimeter):30.05 inches Hg (1017.7 mb) [Sea level pressure: 1016.0 mb]
Winds:from the N (10 degrees) at 5 MPH (4 knots; 2.1 m/s)
Visibility:10 or more sm (16+ km)
Ceiling:at least 12,000 feet AGL
Clouds:sky clear below 12,000 feet AGL
QC Flag:automated observation with no human augmentation


Page loaded:  15:09 UTC  |   08:09 AM Pacific  |   09:09 AM Mountain  |   10:09 AM Central  |   11:09 AM Eastern

 

ADVISORIES

FORECASTS

FORECASTS

OBSERVATIONS

USER TOOLS

ABOUT US